sensor_id;sensor_type;location;lat;lon;timestamp;pressure;altitude;pressure_sealevel;temperature;humidity
38688;BME280;24444;53.216;-6.664;2022-09-01T00:00:25;101479.25;;;7.83;100.00
38688;BME280;24444;53.216;-6.664;2022-09-01T00:02:53;101476.21;;;8.60;100.00
38688;BME280;24444;53.216;-6.664;2022-09-01T00:05:21;101473.46;;;8.64;100.00
38688;BME280;24444;53.216;-6.664;2022-09-01T00:07:48;101472.76;;;8.87;100.00
38688;BME280;24444;53.216;-6.664;2022-09-01T00:10:16;101472.15;;;9.40;100.00
38688;BME280;24444;53.216;-6.664;2022-09-01T00:12:43;101473.08;;;8.78;100.00
38688;BME280;24444;53.216;-6.664;2022-09-01T00:15:11;101471.48;;;8.64;100.00
38688;BME280;24444;53.216;-6.664;2022-09-01T00:17:39;101468.96;;;8.75;100.00
38688;BME280;24444;53.216;-6.664;2022-09-01T00:20:08;101467.51;;;8.29;100.00
38688;BME280;24444;53.216;-6.664;2022-09-01T00:22:35;101465.96;;;8.84;100.00
38688;BME280;24444;53.216;-6.664;2022-09-01T00:25:03;101464.25;;;8.72;100.00
38688;BME280;24444;53.216;-6.664;2022-09-01T00:27:31;101464.04;;;8.35;100.00
38688;BME280;24444;53.216;-6.664;2022-09-01T00:29:59;101462.84;;;8.64;100.00
38688;BME280;24444;53.216;-6.664;2022-09-01T00:32:26;101462.21;;;8.68;100.00
38688;BME280;24444;53.216;-6.664;2022-09-01T00:34:54;101461.98;;;8.43;100.00
38688;BME280;24444;53.216;-6.664;2022-09-01T00:37:21;101457.28;;;8.88;100.00
38688;BME280;24444;53.216;-6.664;2022-09-01T00:39:49;101457.36;;;8.76;100.00
38688;BME280;24444;53.216;-6.664;2022-09-01T00:42:16;101455.41;;;8.73;100.00
38688;BME280;24444;53.216;-6.664;2022-09-01T00:44:44;101448.06;;;8.80;100.00
38688;BME280;24444;53.216;-6.664;2022-09-01T00:47:12;101446.95;;;8.81;100.00
38688;BME280;24444;53.216;-6.664;2022-09-01T00:49:42;101446.62;;;9.25;100.00
38688;BME280;24444;53.216;-6.664;2022-09-01T00:52:15;101447.07;;;9.02;100.00
38688;BME280;24444;53.216;-6.664;2022-09-01T00:54:48;101443.74;;;9.34;100.00
38688;BME280;24444;53.216;-6.664;2022-09-01T00:57:16;101439.50;;;9.10;100.00
38688;BME280;24444;53.216;-6.664;2022-09-01T00:59:54;101438.80;;;8.70;100.00
38688;BME280;24444;53.216;-6.664;2022-09-01T01:02:24;101436.98;;;8.99;100.00
38688;BME280;24444;53.216;-6.664;2022-09-01T01:04:51;101432.65;;;8.77;100.00
38688;BME280;24444;53.216;-6.664;2022-09-01T01:07:20;101430.20;;;8.62;100.00
38688;BME280;24444;53.216;-6.664;2022-09-01T01:09:49;101427.38;;;8.65;100.00
38688;BME280;24444;53.216;-6.664;2022-09-01T01:12:16;101431.61;;;8.90;100.00
38688;BME280;24444;53.216;-6.664;2022-09-01T01:14:45;101429.53;;;9.04;100.00
38688;BME280;24444;53.216;-6.664;2022-09-01T01:17:12;101425.14;;;8.86;100.00
38688;BME280;24444;53.216;-6.664;2022-09-01T01:19:41;101427.24;;;8.66;100.00
38688;BME280;24444;53.216;-6.664;2022-09-01T01:22:14;101421.40;;;8.90;100.00
38688;BME280;24444;53.216;-6.664;2022-09-01T01:24:46;101420.31;;;8.77;100.00
38688;BME280;24444;53.216;-6.664;2022-09-01T01:27:14;101421.83;;;8.63;100.00
38688;BME280;24444;53.216;-6.664;2022-09-01T01:29:41;101417.66;;;8.17;100.00
38688;BME280;24444;53.216;-6.664;2022-09-01T01:32:09;101414.03;;;8.24;100.00
38688;BME280;24444;53.216;-6.664;2022-09-01T01:34:37;101415.24;;;8.07;100.00
38688;BME280;24444;53.216;-6.664;2022-09-01T01:37:04;101415.15;;;8.13;100.00
38688;BME280;24444;53.216;-6.664;2022-09-01T01:39:32;101410.14;;;8.23;100.00
38688;BME280;24444;53.216;-6.664;2022-09-01T01:41:59;101410.62;;;8.23;100.00
38688;BME280;24444;53.216;-6.664;2022-09-01T01:44:27;101408.95;;;7.80;100.00
38688;BME280;24444;53.216;-6.664;2022-09-01T01:46:55;101408.98;;;7.76;100.00
38688;BME280;24444;53.216;-6.664;2022-09-01T01:49:25;101407.57;;;7.94;100.00
38688;BME280;24444;53.216;-6.664;2022-09-01T01:51:53;101407.11;;;7.93;100.00
38688;BME280;24444;53.216;-6.664;2022-09-01T01:54:20;101405.30;;;7.94;100.00
38688;BME280;24444;53.216;-6.664;2022-09-01T01:56:48;101401.41;;;8.11;100.00
38688;BME280;24444;53.216;-6.664;2022-09-01T01:59:15;101400.99;;;8.35;100.00
38688;BME280;24444;53.216;-6.664;2022-09-01T02:01:44;101402.58;;;8.06;100.00
38688;BME280;24444;53.216;-6.664;2022-09-01T02:04:12;101403.29;;;8.33;100.00
38688;BME280;24444;53.216;-6.664;2022-09-01T02:06:39;101403.76;;;8.34;100.00
38688;BME280;24444;53.216;-6.664;2022-09-01T02:09:07;101403.36;;;8.15;100.00
38688;BME280;24444;53.216;-6.664;2022-09-01T02:11:34;101401.70;;;8.36;100.00
38688;BME280;24444;53.216;-6.664;2022-09-01T02:14:03;101399.58;;;8.56;100.00
38688;BME280;24444;53.216;-6.664;2022-09-01T02:16:31;101396.37;;;8.82;100.00
38688;BME280;24444;53.216;-6.664;2022-09-01T02:18:59;101396.88;;;8.33;100.00
38688;BME280;24444;53.216;-6.664;2022-09-01T02:21:27;101399.16;;;8.96;100.00
38688;BME280;24444;53.216;-6.664;2022-09-01T02:23:56;101395.97;;;8.76;100.00
38688;BME280;24444;53.216;-6.664;2022-09-01T02:26:26;101394.52;;;8.54;100.00
38688;BME280;24444;53.216;-6.664;2022-09-01T02:28:53;101392.03;;;8.38;100.00
38688;BME280;24444;53.216;-6.664;2022-09-01T02:31:21;101391.74;;;8.82;100.00
38688;BME280;24444;53.216;-6.664;2022-09-01T02:33:49;101394.71;;;8.65;100.00
38688;BME280;24444;53.216;-6.664;2022-09-01T02:36:18;101393.01;;;9.17;100.00
38688;BME280;24444;53.216;-6.664;2022-09-01T02:38:46;101388.85;;;9.09;100.00
38688;BME280;24444;53.216;-6.664;2022-09-01T02:41:14;101387.52;;;8.35;100.00
38688;BME280;24444;53.216;-6.664;2022-09-01T02:43:42;101383.43;;;8.72;100.00
38688;BME280;24444;53.216;-6.664;2022-09-01T02:46:09;101383.70;;;9.01;100.00
38688;BME280;24444;53.216;-6.664;2022-09-01T02:48:38;101386.85;;;8.38;100.00
38688;BME280;24444;53.216;-6.664;2022-09-01T02:51:08;101384.06;;;8.75;100.00
38688;BME280;24444;53.216;-6.664;2022-09-01T02:53:37;101379.46;;;8.54;100.00
38688;BME280;24444;53.216;-6.664;2022-09-01T02:56:07;101379.99;;;8.92;100.00
38688;BME280;24444;53.216;-6.664;2022-09-01T02:58:35;101377.36;;;8.80;100.00
38688;BME280;24444;53.216;-6.664;2022-09-01T03:01:02;101373.94;;;8.46;100.00
38688;BME280;24444;53.216;-6.664;2022-09-01T03:03:29;101376.15;;;8.50;100.00
38688;BME280;24444;53.216;-6.664;2022-09-01T03:05:57;101377.94;;;7.96;100.00
38688;BME280;24444;53.216;-6.664;2022-09-01T03:08:24;101375.34;;;8.22;100.00
38688;BME280;24444;53.216;-6.664;2022-09-01T03:10:51;101373.86;;;8.85;100.00
38688;BME280;24444;53.216;-6.664;2022-09-01T03:13:22;101369.67;;;8.25;100.00
38688;BME280;24444;53.216;-6.664;2022-09-01T03:15:50;101369.06;;;8.84;100.00
38688;BME280;24444;53.216;-6.664;2022-09-01T03:18:17;101367.73;;;8.40;100.00
38688;BME280;24444;53.216;-6.664;2022-09-01T03:20:46;101363.82;;;8.56;100.00
38688;BME280;24444;53.216;-6.664;2022-09-01T03:23:14;101363.62;;;8.33;100.00
38688;BME280;24444;53.216;-6.664;2022-09-01T03:25:43;101355.55;;;7.94;100.00
38688;BME280;24444;53.216;-6.664;2022-09-01T03:28:11;101362.57;;;8.01;100.00
38688;BME280;24444;53.216;-6.664;2022-09-01T03:30:44;101359.44;;;8.36;100.00
38688;BME280;24444;53.216;-6.664;2022-09-01T03:33:12;101361.08;;;8.49;100.00
38688;BME280;24444;53.216;-6.664;2022-09-01T03:35:39;101361.08;;;8.34;100.00
38688;BME280;24444;53.216;-6.664;2022-09-01T03:38:07;101356.56;;;8.09;100.00
38688;BME280;24444;53.216;-6.664;2022-09-01T03:40:35;101355.61;;;8.53;100.00
38688;BME280;24444;53.216;-6.664;2022-09-01T03:43:05;101354.26;;;8.86;100.00
38688;BME280;24444;53.216;-6.664;2022-09-01T03:45:32;101353.24;;;8.59;100.00
38688;BME280;24444;53.216;-6.664;2022-09-01T03:48:00;101352.51;;;8.69;100.00
38688;BME280;24444;53.216;-6.664;2022-09-01T03:50:28;101348.69;;;8.78;100.00
38688;BME280;24444;53.216;-6.664;2022-09-01T03:52:57;101347.14;;;8.66;100.00
38688;BME280;24444;53.216;-6.664;2022-09-01T03:55:28;101345.40;;;8.45;100.00
38688;BME280;24444;53.216;-6.664;2022-09-01T03:57:57;101340.07;;;8.17;100.00
38688;BME280;24444;53.216;-6.664;2022-09-01T04:00:26;101340.71;;;8.54;100.00
38688;BME280;24444;53.216;-6.664;2022-09-01T04:02:55;101334.16;;;8.65;100.00
38688;BME280;24444;53.216;-6.664;2022-09-01T04:05:23;101331.19;;;8.68;100.00
38688;BME280;24444;53.216;-6.664;2022-09-01T04:07:51;101329.37;;;8.90;100.00
38688;BME280;24444;53.216;-6.664;2022-09-01T04:10:18;101328.90;;;8.41;100.00
38688;BME280;24444;53.216;-6.664;2022-09-01T04:12:46;101327.50;;;8.92;100.00
38688;BME280;24444;53.216;-6.664;2022-09-01T04:15:14;101328.76;;;8.86;100.00
38688;BME280;24444;53.216;-6.664;2022-09-01T04:17:42;101324.91;;;8.45;100.00
38688;BME280;24444;53.216;-6.664;2022-09-01T04:20:10;101319.95;;;8.99;100.00
38688;BME280;24444;53.216;-6.664;2022-09-01T04:22:37;101323.47;;;8.86;100.00
38688;BME280;24444;53.216;-6.664;2022-09-01T04:25:05;101319.54;;;9.35;100.00
38688;BME280;24444;53.216;-6.664;2022-09-01T04:27:32;101317.99;;;9.12;100.00
38688;BME280;24444;53.216;-6.664;2022-09-01T04:30:00;101312.56;;;8.85;100.00
38688;BME280;24444;53.216;-6.664;2022-09-01T04:32:27;101315.95;;;8.85;100.00
38688;BME280;24444;53.216;-6.664;2022-09-01T04:34:55;101314.28;;;9.04;100.00
38688;BME280;24444;53.216;-6.664;2022-09-01T04:37:22;101316.86;;;9.28;100.00
38688;BME280;24444;53.216;-6.664;2022-09-01T04:39:51;101316.19;;;9.53;100.00
38688;BME280;24444;53.216;-6.664;2022-09-01T04:42:19;101310.95;;;9.54;100.00
38688;BME280;24444;53.216;-6.664;2022-09-01T04:44:46;101313.66;;;9.21;100.00
38688;BME280;24444;53.216;-6.664;2022-09-01T04:47:14;101314.56;;;9.08;100.00
38688;BME280;24444;53.216;-6.664;2022-09-01T04:49:41;101313.53;;;9.02;100.00
38688;BME280;24444;53.216;-6.664;2022-09-01T04:52:09;101313.74;;;9.16;100.00
38688;BME280;24444;53.216;-6.664;2022-09-01T04:54:37;101312.64;;;9.05;100.00
38688;BME280;24444;53.216;-6.664;2022-09-01T04:57:05;101316.08;;;9.29;100.00
38688;BME280;24444;53.216;-6.664;2022-09-01T04:59:33;101315.52;;;8.95;100.00
38688;BME280;24444;53.216;-6.664;2022-09-01T05:02:00;101314.92;;;9.05;100.00
38688;BME280;24444;53.216;-6.664;2022-09-01T05:04:31;101315.99;;;9.42;100.00
38688;BME280;24444;53.216;-6.664;2022-09-01T05:06:59;101315.13;;;9.19;100.00
38688;BME280;24444;53.216;-6.664;2022-09-01T05:09:29;101317.05;;;8.82;100.00
38688;BME280;24444;53.216;-6.664;2022-09-01T05:11:58;101318.19;;;9.01;100.00
38688;BME280;24444;53.216;-6.664;2022-09-01T05:14:25;101317.84;;;8.62;100.00
38688;BME280;24444;53.216;-6.664;2022-09-01T05:16:56;101317.44;;;9.20;100.00
38688;BME280;24444;53.216;-6.664;2022-09-01T05:19:24;101316.36;;;9.74;100.00
38688;BME280;24444;53.216;-6.664;2022-09-01T05:21:51;101318.29;;;9.50;100.00
38688;BME280;24444;53.216;-6.664;2022-09-01T05:24:19;101319.43;;;10.01;100.00
38688;BME280;24444;53.216;-6.664;2022-09-01T05:26:47;101321.65;;;10.33;98.50
38688;BME280;24444;53.216;-6.664;2022-09-01T05:29:15;101320.66;;;10.27;97.90
38688;BME280;24444;53.216;-6.664;2022-09-01T05:31:45;101321.31;;;9.07;98.81
38688;BME280;24444;53.216;-6.664;2022-09-01T05:34:14;101324.17;;;9.99;99.15
38688;BME280;24444;53.216;-6.664;2022-09-01T05:36:44;101320.15;;;10.27;97.23
38688;BME280;24444;53.216;-6.664;2022-09-01T05:39:12;101317.75;;;9.98;96.75
38688;BME280;24444;53.216;-6.664;2022-09-01T05:41:39;101316.95;;;9.96;98.10
38688;BME280;24444;53.216;-6.664;2022-09-01T05:44:07;101320.33;;;9.55;99.03
38688;BME280;24444;53.216;-6.664;2022-09-01T05:46:37;101321.13;;;9.40;99.00
38688;BME280;24444;53.216;-6.664;2022-09-01T05:49:05;101320.27;;;9.51;99.57
38688;BME280;24444;53.216;-6.664;2022-09-01T05:51:33;101322.57;;;9.52;100.00
38688;BME280;24444;53.216;-6.664;2022-09-01T05:54:02;101318.97;;;9.45;100.00
38688;BME280;24444;53.216;-6.664;2022-09-01T05:56:30;101319.12;;;8.93;100.00
38688;BME280;24444;53.216;-6.664;2022-09-01T05:58:59;101317.49;;;9.94;99.97
38688;BME280;24444;53.216;-6.664;2022-09-01T06:01:28;101317.11;;;9.77;99.30
38688;BME280;24444;53.216;-6.664;2022-09-01T06:03:56;101318.31;;;9.80;98.83
38688;BME280;24444;53.216;-6.664;2022-09-01T06:06:27;101316.99;;;9.49;99.47
38688;BME280;24444;53.216;-6.664;2022-09-01T06:08:55;101318.75;;;9.49;99.61
38688;BME280;24444;53.216;-6.664;2022-09-01T06:11:23;101318.78;;;9.61;98.76
38688;BME280;24444;53.216;-6.664;2022-09-01T06:13:51;101319.14;;;9.48;99.25
38688;BME280;24444;53.216;-6.664;2022-09-01T06:16:19;101321.71;;;9.53;99.02
38688;BME280;24444;53.216;-6.664;2022-09-01T06:18:46;101320.80;;;9.68;98.79
38688;BME280;24444;53.216;-6.664;2022-09-01T06:21:13;101322.34;;;9.40;99.25
38688;BME280;24444;53.216;-6.664;2022-09-01T06:23:41;101322.59;;;9.51;98.98
38688;BME280;24444;53.216;-6.664;2022-09-01T06:26:16;101323.62;;;9.71;98.25
38688;BME280;24444;53.216;-6.664;2022-09-01T06:28:43;101328.30;;;9.52;99.00
38688;BME280;24444;53.216;-6.664;2022-09-01T06:31:12;101330.83;;;9.10;99.30
38688;BME280;24444;53.216;-6.664;2022-09-01T06:33:39;101328.70;;;9.58;97.22
38688;BME280;24444;53.216;-6.664;2022-09-01T06:36:07;101331.44;;;9.97;97.68
38688;BME280;24444;53.216;-6.664;2022-09-01T06:38:34;101331.67;;;10.03;96.95
38688;BME280;24444;53.216;-6.664;2022-09-01T06:41:04;101330.78;;;10.18;97.40
38688;BME280;24444;53.216;-6.664;2022-09-01T06:43:31;101331.42;;;9.43;98.60
38688;BME280;24444;53.216;-6.664;2022-09-01T06:46:00;101334.44;;;9.30;99.34
38688;BME280;24444;53.216;-6.664;2022-09-01T06:48:28;101338.86;;;10.00;99.03
38688;BME280;24444;53.216;-6.664;2022-09-01T06:50:59;101339.49;;;10.06;98.02
38688;BME280;24444;53.216;-6.664;2022-09-01T06:53:26;101338.88;;;9.60;99.07
38688;BME280;24444;53.216;-6.664;2022-09-01T06:55:53;101339.75;;;9.90;97.85
38688;BME280;24444;53.216;-6.664;2022-09-01T06:58:21;101337.59;;;9.36;98.44
38688;BME280;24444;53.216;-6.664;2022-09-01T07:00:49;101340.86;;;9.73;98.47
38688;BME280;24444;53.216;-6.664;2022-09-01T07:03:16;101341.94;;;10.06;97.85
38688;BME280;24444;53.216;-6.664;2022-09-01T07:05:46;101347.22;;;9.68;97.68
38688;BME280;24444;53.216;-6.664;2022-09-01T07:08:15;101348.53;;;10.04;97.62
38688;BME280;24444;53.216;-6.664;2022-09-01T07:10:45;101346.68;;;9.64;98.71
38688;BME280;24444;53.216;-6.664;2022-09-01T07:13:15;101345.13;;;9.97;98.62
38688;BME280;24444;53.216;-6.664;2022-09-01T07:15:42;101345.43;;;10.52;96.04
38688;BME280;24444;53.216;-6.664;2022-09-01T07:18:10;101345.31;;;10.91;96.26
38688;BME280;24444;53.216;-6.664;2022-09-01T07:20:40;101339.13;;;10.69;96.43
38688;BME280;24444;53.216;-6.664;2022-09-01T07:23:08;101337.01;;;11.04;94.11
38688;BME280;24444;53.216;-6.664;2022-09-01T07:25:39;101340.89;;;11.50;92.07
38688;BME280;24444;53.216;-6.664;2022-09-01T07:28:07;101344.57;;;11.24;91.28
38688;BME280;24444;53.216;-6.664;2022-09-01T07:30:40;101344.78;;;11.40;89.44
38688;BME280;24444;53.216;-6.664;2022-09-01T07:33:08;101343.48;;;12.57;87.93
38688;BME280;24444;53.216;-6.664;2022-09-01T07:35:36;101346.52;;;11.74;87.73
38688;BME280;24444;53.216;-6.664;2022-09-01T07:38:04;101345.36;;;11.67;88.36
38688;BME280;24444;53.216;-6.664;2022-09-01T07:40:31;101347.12;;;12.11;87.78
38688;BME280;24444;53.216;-6.664;2022-09-01T07:42:59;101341.68;;;12.16;87.86
38688;BME280;24444;53.216;-6.664;2022-09-01T07:45:27;101344.72;;;12.36;86.03
38688;BME280;24444;53.216;-6.664;2022-09-01T07:47:55;101345.29;;;12.06;87.31
38688;BME280;24444;53.216;-6.664;2022-09-01T07:50:23;101341.97;;;12.15;87.16
38688;BME280;24444;53.216;-6.664;2022-09-01T07:52:50;101340.49;;;12.81;85.01
38688;BME280;24444;53.216;-6.664;2022-09-01T07:55:18;101334.59;;;11.80;85.75
38688;BME280;24444;53.216;-6.664;2022-09-01T07:57:45;101339.65;;;11.50;86.64
38688;BME280;24444;53.216;-6.664;2022-09-01T08:00:14;101342.05;;;12.22;86.67
38688;BME280;24444;53.216;-6.664;2022-09-01T08:02:42;101350.19;;;14.34;80.88
38688;BME280;24444;53.216;-6.664;2022-09-01T08:05:14;101341.85;;;14.78;77.00
38688;BME280;24444;53.216;-6.664;2022-09-01T08:07:42;101341.87;;;16.34;72.37
38688;BME280;24444;53.216;-6.664;2022-09-01T08:10:09;101341.45;;;16.27;68.64
38688;BME280;24444;53.216;-6.664;2022-09-01T08:12:37;101342.45;;;17.15;62.49
38688;BME280;24444;53.216;-6.664;2022-09-01T08:15:08;101340.23;;;17.84;60.04
38688;BME280;24444;53.216;-6.664;2022-09-01T08:17:36;101343.29;;;18.35;57.36
38688;BME280;24444;53.216;-6.664;2022-09-01T08:20:05;101345.16;;;19.68;52.74
38688;BME280;24444;53.216;-6.664;2022-09-01T08:22:32;101342.34;;;20.93;49.41
38688;BME280;24444;53.216;-6.664;2022-09-01T08:25:00;101344.64;;;19.91;47.93
38688;BME280;24444;53.216;-6.664;2022-09-01T08:27:27;101343.12;;;17.74;49.36
38688;BME280;24444;53.216;-6.664;2022-09-01T08:29:55;101343.96;;;16.10;55.23
38688;BME280;24444;53.216;-6.664;2022-09-01T08:32:22;101344.92;;;18.74;54.00
38688;BME280;24444;53.216;-6.664;2022-09-01T08:34:49;101346.54;;;19.64;49.99
38688;BME280;24444;53.216;-6.664;2022-09-01T08:37:17;101347.04;;;17.90;49.97
38688;BME280;24444;53.216;-6.664;2022-09-01T08:39:44;101346.31;;;17.72;52.95
38688;BME280;24444;53.216;-6.664;2022-09-01T08:42:17;101345.05;;;18.48;53.54
38688;BME280;24444;53.216;-6.664;2022-09-01T08:44:55;101349.01;;;19.54;49.89
38688;BME280;24444;53.216;-6.664;2022-09-01T08:47:25;101346.01;;;18.45;50.32
38688;BME280;24444;53.216;-6.664;2022-09-01T08:49:53;101348.45;;;20.04;48.64
38688;BME280;24444;53.216;-6.664;2022-09-01T08:52:23;101345.33;;;20.18;47.31
38688;BME280;24444;53.216;-6.664;2022-09-01T08:54:57;101343.96;;;21.24;45.30
38688;BME280;24444;53.216;-6.664;2022-09-01T08:57:29;101342.99;;;20.81;45.62
38688;BME280;24444;53.216;-6.664;2022-09-01T08:59:58;101337.85;;;20.36;45.36
38688;BME280;24444;53.216;-6.664;2022-09-01T09:02:35;101336.90;;;20.40;45.20
38688;BME280;24444;53.216;-6.664;2022-09-01T09:05:09;101335.50;;;21.07;44.40
38688;BME280;24444;53.216;-6.664;2022-09-01T09:07:51;101332.18;;;20.70;43.61
38688;BME280;24444;53.216;-6.664;2022-09-01T09:10:25;101336.13;;;20.72;43.86
38688;BME280;24444;53.216;-6.664;2022-09-01T09:13:09;101336.48;;;18.70;47.11
38688;BME280;24444;53.216;-6.664;2022-09-01T09:15:42;101328.59;;;17.14;51.06
38688;BME280;24444;53.216;-6.664;2022-09-01T09:18:16;101321.27;;;15.99;55.16
38688;BME280;24444;53.216;-6.664;2022-09-01T09:20:47;101326.28;;;15.58;61.95
38688;BME280;24444;53.216;-6.664;2022-09-01T09:23:23;101323.54;;;15.45;62.17
38688;BME280;24444;53.216;-6.664;2022-09-01T09:25:50;101319.05;;;16.05;67.48
38688;BME280;24444;53.216;-6.664;2022-09-01T09:28:18;101318.23;;;15.58;62.94
38688;BME280;24444;53.216;-6.664;2022-09-01T09:30:45;101315.48;;;16.10;63.39
38688;BME280;24444;53.216;-6.664;2022-09-01T09:33:33;101316.03;;;15.80;61.45
38688;BME280;24444;53.216;-6.664;2022-09-01T09:36:16;101316.44;;;15.01;64.99
38688;BME280;24444;53.216;-6.664;2022-09-01T09:38:45;101316.85;;;14.13;72.53
38688;BME280;24444;53.216;-6.664;2022-09-01T09:41:16;101319.94;;;14.74;72.59
38688;BME280;24444;53.216;-6.664;2022-09-01T09:43:47;101318.97;;;15.20;71.94
38688;BME280;24444;53.216;-6.664;2022-09-01T09:46:25;101311.22;;;16.99;64.11
38688;BME280;24444;53.216;-6.664;2022-09-01T09:49:15;101310.37;;;16.06;66.72
38688;BME280;24444;53.216;-6.664;2022-09-01T09:51:46;101309.63;;;15.72;69.38
38688;BME280;24444;53.216;-6.664;2022-09-01T09:54:19;101307.17;;;14.81;71.21
38688;BME280;24444;53.216;-6.664;2022-09-01T09:56:48;101301.82;;;14.99;69.67
38688;BME280;24444;53.216;-6.664;2022-09-01T09:59:30;101304.03;;;14.75;73.32
38688;BME280;24444;53.216;-6.664;2022-09-01T10:01:59;101302.17;;;14.67;72.41
38688;BME280;24444;53.216;-6.664;2022-09-01T10:04:39;101301.16;;;14.81;73.44
38688;BME280;24444;53.216;-6.664;2022-09-01T10:07:29;101297.68;;;14.60;74.61
38688;BME280;24444;53.216;-6.664;2022-09-01T10:09:59;101298.67;;;14.42;75.30
38688;BME280;24444;53.216;-6.664;2022-09-01T10:12:28;101294.47;;;14.04;76.28
38688;BME280;24444;53.216;-6.664;2022-09-01T10:14:59;101291.23;;;14.13;75.78
38688;BME280;24444;53.216;-6.664;2022-09-01T10:17:30;101294.19;;;14.41;74.77
38688;BME280;24444;53.216;-6.664;2022-09-01T10:20:02;101289.59;;;14.27;74.36
38688;BME280;24444;53.216;-6.664;2022-09-01T10:22:30;101289.36;;;14.25;74.85
38688;BME280;24444;53.216;-6.664;2022-09-01T10:24:59;101282.67;;;14.19;74.88
38688;BME280;24444;53.216;-6.664;2022-09-01T10:27:29;101278.89;;;14.75;73.78
38688;BME280;24444;53.216;-6.664;2022-09-01T10:30:06;101273.85;;;14.24;74.62
38688;BME280;24444;53.216;-6.664;2022-09-01T10:32:38;101270.75;;;14.01;75.51
38688;BME280;24444;53.216;-6.664;2022-09-01T10:35:09;101270.16;;;15.58;72.49
38688;BME280;24444;53.216;-6.664;2022-09-01T10:37:40;101264.87;;;17.54;63.43
38688;BME280;24444;53.216;-6.664;2022-09-01T10:40:13;101263.96;;;18.87;55.34
38688;BME280;24444;53.216;-6.664;2022-09-01T10:42:44;101260.44;;;19.07;53.12
38688;BME280;24444;53.216;-6.664;2022-09-01T10:45:19;101256.39;;;20.05;47.85
38688;BME280;24444;53.216;-6.664;2022-09-01T10:47:54;101267.29;;;19.48;44.19
38688;BME280;24444;53.216;-6.664;2022-09-01T10:50:28;101261.41;;;19.82;42.45
38688;BME280;24444;53.216;-6.664;2022-09-01T10:53:01;101255.87;;;19.73;42.67
38688;BME280;24444;53.216;-6.664;2022-09-01T10:55:36;101260.72;;;19.85;42.85
38688;BME280;24444;53.216;-6.664;2022-09-01T10:58:47;101253.57;;;19.81;44.28
38688;BME280;24444;53.216;-6.664;2022-09-01T11:01:16;101253.51;;;19.39;42.97
38688;BME280;24444;53.216;-6.664;2022-09-01T11:03:55;101249.29;;;20.30;43.87
38688;BME280;24444;53.216;-6.664;2022-09-01T11:08:45;101239.77;;;19.74;47.69
38688;BME280;24444;53.216;-6.664;2022-09-01T11:11:26;101244.62;;;18.81;47.69
38688;BME280;24444;53.216;-6.664;2022-09-01T11:13:57;101233.74;;;19.63;45.82
38688;BME280;24444;53.216;-6.664;2022-09-01T11:16:29;101232.65;;;20.02;43.54
38688;BME280;24444;53.216;-6.664;2022-09-01T11:19:27;101232.43;;;20.45;42.77
38688;BME280;24444;53.216;-6.664;2022-09-01T11:22:23;101226.79;;;20.35;42.50
38688;BME280;24444;53.216;-6.664;2022-09-01T11:25:41;101229.00;;;20.95;42.93
38688;BME280;24444;53.216;-6.664;2022-09-01T11:28:37;101230.29;;;17.54;44.47
38688;BME280;24444;53.216;-6.664;2022-09-01T11:31:40;101231.37;;;19.38;43.89
38688;BME280;24444;53.216;-6.664;2022-09-01T11:34:13;101220.38;;;19.11;40.80
38688;BME280;24444;53.216;-6.664;2022-09-01T11:36:50;101231.91;;;18.46;42.29
38688;BME280;24444;53.216;-6.664;2022-09-01T11:39:29;101232.98;;;18.03;43.52
38688;BME280;24444;53.216;-6.664;2022-09-01T11:42:00;101234.63;;;19.16;44.04
38688;BME280;24444;53.216;-6.664;2022-09-01T11:44:33;101231.06;;;17.78;45.98
38688;BME280;24444;53.216;-6.664;2022-09-01T11:47:05;101227.12;;;16.90;46.88
38688;BME280;24444;53.216;-6.664;2022-09-01T11:49:36;101232.92;;;16.85;48.92
38688;BME280;24444;53.216;-6.664;2022-09-01T11:52:05;101226.52;;;15.69;50.08
38688;BME280;24444;53.216;-6.664;2022-09-01T11:54:38;101222.85;;;15.87;49.28
38688;BME280;24444;53.216;-6.664;2022-09-01T11:57:25;101216.28;;;17.07;47.83
38688;BME280;24444;53.216;-6.664;2022-09-01T11:59:53;101216.22;;;18.24;45.66
38688;BME280;24444;53.216;-6.664;2022-09-01T12:02:23;101220.84;;;17.55;46.34
38688;BME280;24444;53.216;-6.664;2022-09-01T12:04:53;101214.32;;;17.46;46.66
38688;BME280;24444;53.216;-6.664;2022-09-01T12:07:27;101222.41;;;16.92;44.06
38688;BME280;24444;53.216;-6.664;2022-09-01T12:09:56;101218.20;;;16.79;46.37
38688;BME280;24444;53.216;-6.664;2022-09-01T12:12:30;101221.42;;;16.10;49.45
38688;BME280;24444;53.216;-6.664;2022-09-01T12:14:58;101217.94;;;15.62;50.08
38688;BME280;24444;53.216;-6.664;2022-09-01T12:17:26;101220.66;;;15.66;51.17
38688;BME280;24444;53.216;-6.664;2022-09-01T12:19:53;101217.78;;;15.89;53.20
38688;BME280;24444;53.216;-6.664;2022-09-01T12:22:22;101221.36;;;15.13;58.06
38688;BME280;24444;53.216;-6.664;2022-09-01T12:24:51;101215.30;;;15.07;59.13
38688;BME280;24444;53.216;-6.664;2022-09-01T12:27:19;101217.87;;;14.53;57.62
38688;BME280;24444;53.216;-6.664;2022-09-01T12:29:47;101213.23;;;14.06;59.92
38688;BME280;24444;53.216;-6.664;2022-09-01T12:32:15;101205.87;;;15.35;60.19
38688;BME280;24444;53.216;-6.664;2022-09-01T12:34:59;101198.61;;;15.26;54.48
38688;BME280;24444;53.216;-6.664;2022-09-01T12:37:27;101200.23;;;15.70;51.46
38688;BME280;24444;53.216;-6.664;2022-09-01T12:39:56;101194.90;;;15.62;45.48
38688;BME280;24444;53.216;-6.664;2022-09-01T12:42:27;101197.56;;;15.89;47.04
38688;BME280;24444;53.216;-6.664;2022-09-01T12:44:56;101186.27;;;15.60;44.78
38688;BME280;24444;53.216;-6.664;2022-09-01T12:47:56;101195.56;;;17.04;45.06
38688;BME280;24444;53.216;-6.664;2022-09-01T12:50:57;101185.48;;;16.76;49.54
38688;BME280;24444;53.216;-6.664;2022-09-01T12:53:28;101185.62;;;16.46;50.17
38688;BME280;24444;53.216;-6.664;2022-09-01T12:56:03;101182.30;;;16.06;52.89
38688;BME280;24444;53.216;-6.664;2022-09-01T12:58:31;101175.86;;;15.69;54.96